GHOST41 KLSV-KLSV
Flight info
| Callsign | GHOST41 |
|---|---|
| Flight time | N/A |
| Altitude | 15000 |
| Route | RW03L KAZC KSGU KLSV RW03L |
| Aircraft | F35/L-ICAO/C |
Departure
| Time | 2026-04-24 20:08 |
|---|---|
| Airport | Nellis Air Force Base (KLSV) |
Arrival
| Time | N/A |
|---|---|
| Airport | Nellis Air Force Base (KLSV) |
| Time | Latitude | Longitude | Altitude | Speed | Heading |
|---|---|---|---|---|---|
| 2026-04-24 19:56 | 36.22698 | -115.04783 | 1883 ft | 0 kts | 41° |
| 2026-04-24 20:06 | 36.22702 | -115.04779 | 1891 ft | 1 kts | 41° |
| 2026-04-24 20:06 | 36.22720 | -115.04756 | 1863 ft | 0 kts | 61° |
| 2026-04-24 20:07 | 36.22706 | -115.04715 | 1863 ft | 10 kts | 125° |
| 2026-04-24 20:07 | 36.22735 | -115.04612 | 1864 ft | 36 kts | 41° |
| 2026-04-24 20:07 | 36.23654 | -115.03622 | 1911 ft | 295 kts | 40° |
| 2026-04-24 20:08 | 36.25667 | -115.01328 | 3171 ft | 460 kts | 51° |
| 2026-04-24 20:08 | 36.27507 | -114.97736 | 7119 ft | 542 kts | 62° |
| 2026-04-24 20:08 | 36.28868 | -114.92944 | 9750 ft | 621 kts | 81° |
| 2026-04-24 20:08 | 36.29338 | -114.87584 | 11285 ft | 626 kts | 85° |
| 2026-04-24 20:09 | 36.30519 | -114.82594 | 13151 ft | 620 kts | 58° |
| 2026-04-24 20:09 | 36.32682 | -114.77935 | 14776 ft | 628 kts | 63° |
| 2026-04-24 20:09 | 36.34556 | -114.72972 | 15293 ft | 641 kts | 65° |
| 2026-04-24 20:09 | 36.36424 | -114.67943 | 15411 ft | 642 kts | 65° |
| 2026-04-24 20:10 | 36.38301 | -114.62888 | 15548 ft | 642 kts | 65° |
| 2026-04-24 20:10 | 36.40153 | -114.57912 | 16496 ft | 612 kts | 65° |
| 2026-04-24 20:10 | 36.42058 | -114.53146 | 18898 ft | 629 kts | 56° |
| 2026-04-24 20:10 | 36.44789 | -114.48844 | 19530 ft | 637 kts | 49° |
| 2026-04-24 20:11 | 36.47299 | -114.44339 | 19808 ft | 639 kts | 66° |
| 2026-04-24 20:11 | 36.49070 | -114.39272 | 20267 ft | 633 kts | 65° |
| 2026-04-24 20:11 | 36.50817 | -114.34269 | 21636 ft | 625 kts | 66° |
| 2026-04-24 20:11 | 36.52511 | -114.29366 | 22972 ft | 626 kts | 66° |
| 2026-04-24 20:12 | 36.54219 | -114.24351 | 23055 ft | 634 kts | 67° |
| 2026-04-24 20:12 | 36.55920 | -114.19273 | 23104 ft | 635 kts | 67° |
| 2026-04-24 20:12 | 36.57609 | -114.14199 | 23225 ft | 634 kts | 67° |
| 2026-04-24 20:12 | 36.59298 | -114.09128 | 23353 ft | 634 kts | 67° |
| 2026-04-24 20:13 | 36.60999 | -114.04072 | 23506 ft | 632 kts | 67° |
| 2026-04-24 20:13 | 36.62710 | -113.99031 | 23597 ft | 633 kts | 66° |
| 2026-04-24 20:13 | 36.64500 | -113.93993 | 23575 ft | 634 kts | 65° |
| 2026-04-24 20:13 | 36.66306 | -113.88990 | 23509 ft | 634 kts | 65° |
| 2026-04-24 20:14 | 36.68122 | -113.83969 | 23432 ft | 640 kts | 65° |
| 2026-04-24 20:14 | 36.70016 | -113.78712 | 23463 ft | 710 kts | 65° |
| 2026-04-24 20:14 | 36.72156 | -113.72793 | 23753 ft | 784 kts | 65° |
| 2026-04-24 20:14 | 36.74497 | -113.66217 | 23687 ft | 879 kts | 66° |
| 2026-04-24 20:15 | 36.77053 | -113.58849 | 22503 ft | 945 kts | 67° |
| 2026-04-24 20:15 | 36.79602 | -113.51350 | 21281 ft | 930 kts | 67° |
| 2026-04-24 20:15 | 36.82073 | -113.44004 | 20810 ft | 906 kts | 67° |
| 2026-04-24 20:15 | 36.84472 | -113.36808 | 20475 ft | 889 kts | 68° |
| 2026-04-24 20:16 | 36.86825 | -113.29720 | 20025 ft | 875 kts | 68° |
| 2026-04-24 20:16 | 36.89119 | -113.22782 | 17658 ft | 813 kts | 68° |
| 2026-04-24 20:16 | 36.91050 | -113.16915 | 14490 ft | 653 kts | 68° |
| 2026-04-24 20:16 | 36.92606 | -113.12101 | 11514 ft | 558 kts | 68° |
| 2026-04-24 20:17 | 36.93961 | -113.07802 | 9231 ft | 510 kts | 69° |
| 2026-04-24 20:17 | 36.96570 | -113.00405 | 6427 ft | 414 kts | 27° |
| 2026-04-24 20:17 | 36.98696 | -113.00913 | 6379 ft | 295 kts | 292° |
| 2026-04-24 20:18 | 36.98608 | -113.02397 | 6251 ft | 264 kts | 226° |
| 2026-04-24 20:18 | 36.95712 | -113.02453 | 6822 ft | 411 kts | 161° |
| 2026-04-24 20:18 | 36.93366 | -112.99896 | 7324 ft | 481 kts | 128° |
| 2026-04-24 20:18 | 36.91449 | -112.96671 | 7974 ft | 429 kts | 124° |
| 2026-04-24 20:19 | 36.92139 | -112.94139 | 7544 ft | 307 kts | 354° |
| 2026-04-24 20:19 | 36.93312 | -112.95484 | 6703 ft | 218 kts | 292° |
| 2026-04-24 20:19 | 36.93917 | -112.97080 | 6203 ft | 193 kts | 294° |
| 2026-04-24 20:19 | 36.94536 | -112.98515 | 5704 ft | 184 kts | 297° |
| 2026-04-24 20:20 | 36.95189 | -112.99857 | 5182 ft | 174 kts | 298° |
| 2026-04-24 20:20 | 36.95755 | -113.00995 | 4863 ft | 124 kts | 301° |
| 2026-04-24 20:20 | 36.96539 | -113.02495 | 5065 ft | 315 kts | 302° |
| 2026-04-24 20:20 | 36.98089 | -113.05551 | 6681 ft | 496 kts | 290° |
| 2026-04-24 20:21 | 36.98637 | -113.10255 | 7217 ft | 600 kts | 279° |
| 2026-04-24 20:21 | 36.99383 | -113.15499 | 7241 ft | 617 kts | 279° |
| 2026-04-24 20:21 | 37.00126 | -113.20824 | 7247 ft | 625 kts | 279° |
| 2026-04-24 20:21 | 37.00871 | -113.26120 | 7079 ft | 624 kts | 279° |
| 2026-04-24 20:22 | 37.01615 | -113.31443 | 6999 ft | 614 kts | 279° |
| 2026-04-24 20:22 | 37.02336 | -113.36555 | 7012 ft | 581 kts | 279° |
| 2026-04-24 20:22 | 37.03009 | -113.41390 | 6942 ft | 535 kts | 279° |
| 2026-04-24 20:22 | 37.03589 | -113.45685 | 6516 ft | 470 kts | 278° |
| 2026-04-24 20:23 | 37.04096 | -113.49524 | 5980 ft | 428 kts | 278° |
| 2026-04-24 20:23 | 37.03105 | -113.52557 | 5877 ft | 377 kts | 216° |
| 2026-04-24 20:23 | 37.00709 | -113.52647 | 5926 ft | 355 kts | 152° |
| 2026-04-24 20:23 | 36.99616 | -113.50256 | 6161 ft | 312 kts | 75° |
| 2026-04-24 20:24 | 37.00329 | -113.48581 | 5968 ft | 355 kts | 43° |
| 2026-04-24 20:24 | 37.02234 | -113.46163 | 6089 ft | 415 kts | 42° |
| 2026-04-24 20:24 | 37.04521 | -113.43918 | 6148 ft | 424 kts | 20° |
| 2026-04-24 20:24 | 37.08211 | -113.42900 | 6172 ft | 391 kts | 331° |
| 2026-04-24 20:25 | 37.09411 | -113.45423 | 5515 ft | 327 kts | 248° |
| 2026-04-24 20:25 | 37.08515 | -113.46831 | 5075 ft | 300 kts | 233° |
| 2026-04-24 20:25 | 37.07292 | -113.48726 | 4328 ft | 255 kts | 226° |
| 2026-04-24 20:25 | 37.05895 | -113.49841 | 3466 ft | 226 kts | 204° |
| 2026-04-24 20:26 | 37.04572 | -113.50544 | 2910 ft | 189 kts | 203° |
| 2026-04-24 20:26 | 37.03642 | -113.51038 | 2869 ft | 93 kts | 202° |
| 2026-04-24 20:26 | 37.03242 | -113.51244 | 2859 ft | 33 kts | 197° |
| 2026-04-24 20:26 | 37.03123 | -113.51139 | 2855 ft | 13 kts | 115° |
| 2026-04-24 20:27 | 37.03105 | -113.51038 | 2858 ft | 11 kts | 55° |
| 2026-04-24 20:27 | 37.03110 | -113.50963 | 2859 ft | 6 kts | 44° |
| 2026-04-24 20:27 | 37.03129 | -113.50978 | 2857 ft | 6 kts | 279° |
| 2026-04-24 20:27 | 37.03130 | -113.50982 | 2858 ft | 0 kts | 281° |